createdAt,value
2023-01-29T00:02:09.978Z,-0.33
2023-01-29T00:05:16.725Z,-0.36
2023-01-29T00:08:15.117Z,-0.32
2023-01-29T00:11:10.236Z,-0.29
2023-01-29T00:14:03.382Z,-0.29
2023-01-29T00:16:56.447Z,-0.34
2023-01-29T00:19:49.339Z,-0.41
2023-01-29T00:22:42.113Z,-0.45
2023-01-29T00:25:34.927Z,-0.49
2023-01-29T00:28:26.397Z,-0.51
2023-01-29T00:31:22.170Z,-0.52
2023-01-29T00:34:15.072Z,-0.50
2023-01-29T00:37:09.732Z,-0.47
2023-01-29T00:40:02.550Z,-0.39
2023-01-29T00:43:06.223Z,-0.32
2023-01-29T00:45:58.957Z,-0.28
2023-01-29T00:48:52.229Z,-0.30
2023-01-29T00:52:05.052Z,-0.39
2023-01-29T00:54:59.663Z,-0.48
2023-01-29T00:57:53.635Z,-0.55
2023-01-29T01:00:46.397Z,-0.61
2023-01-29T01:03:42.245Z,-0.58
2023-01-29T01:06:34.617Z,-0.54
2023-01-29T01:09:45.957Z,-0.50
2023-01-29T01:12:40.169Z,-0.44
2023-01-29T01:15:36.601Z,-0.39
2023-01-29T01:18:32.475Z,-0.34
2023-01-29T01:21:25.235Z,-0.29
2023-01-29T01:24:18.063Z,-0.27
2023-01-29T01:27:03.991Z,-0.30
2023-01-29T01:29:58.002Z,-0.36
2023-01-29T01:32:50.984Z,-0.41
2023-01-29T01:35:44.475Z,-0.47
2023-01-29T01:38:37.397Z,-0.49
2023-01-29T01:41:23.119Z,-0.48
2023-01-29T01:44:45.948Z,-0.41
2023-01-29T01:47:46.407Z,-0.34
2023-01-29T01:50:37.507Z,-0.24
2023-01-29T01:53:30.864Z,-0.16
2023-01-29T01:56:29.297Z,-0.16
2023-01-29T01:59:23.987Z,-0.20
2023-01-29T02:02:34.873Z,-0.19
2023-01-29T02:05:46.064Z,-0.24
2023-01-29T02:08:50.555Z,-0.31
2023-01-29T02:11:43.396Z,-0.36
2023-01-29T02:14:40.264Z,-0.40
2023-01-29T02:17:33.569Z,-0.42
2023-01-29T02:20:28.253Z,-0.40
2023-01-29T02:23:41.101Z,-0.35
2023-01-29T02:26:56.947Z,-0.27
2023-01-29T02:30:03.478Z,-0.20
2023-01-29T02:33:07.631Z,-0.14
2023-01-29T02:36:10.736Z,-0.13
2023-01-29T02:39:14.015Z,-0.07
2023-01-29T02:42:18.675Z,0.01
2023-01-29T02:45:15.356Z,0.02
2023-01-29T02:48:13.487Z,0.04
2023-01-29T02:51:07.311Z,-0.02
2023-01-29T02:54:04.680Z,-0.11
2023-01-29T02:57:00.816Z,-0.19
2023-01-29T02:59:57.165Z,-0.28
2023-01-29T03:02:49.354Z,-0.34
2023-01-29T03:05:51.185Z,-0.39
2023-01-29T03:08:45.751Z,-0.42
2023-01-29T03:11:42.746Z,-0.46
2023-01-29T03:14:54.290Z,-0.47
2023-01-29T03:17:52.649Z,-0.45
2023-01-29T03:20:49.333Z,-0.49
2023-01-29T03:24:00.665Z,-0.52
2023-01-29T03:27:11.645Z,-0.55
2023-01-29T03:30:23.834Z,-0.60
2023-01-29T03:33:17.407Z,-0.64
2023-01-29T03:36:16.412Z,-0.63
2023-01-29T03:39:11.573Z,-0.63
2023-01-29T03:42:14.135Z,-0.62
2023-01-29T03:45:05.478Z,-0.61
2023-01-29T03:48:08.012Z,-0.60
2023-01-29T03:51:10.190Z,-0.59
2023-01-29T03:54:11.154Z,-0.57
2023-01-29T03:57:15.553Z,-0.60
2023-01-29T04:00:17.509Z,-0.66
2023-01-29T04:03:18.379Z,-0.69
2023-01-29T04:06:11.124Z,-0.71
2023-01-29T04:09:09.356Z,-0.71
2023-01-29T04:12:02.217Z,-0.70
2023-01-29T04:14:56.419Z,-0.68
2023-01-29T04:17:41.145Z,-0.68
2023-01-29T04:20:38.578Z,-0.70
2023-01-29T04:23:33.291Z,-0.71
2023-01-29T04:26:57.309Z,-0.74
2023-01-29T04:30:04.603Z,-0.78
2023-01-29T04:33:11.837Z,-0.82
2023-01-29T04:36:01.587Z,-0.85
2023-01-29T04:39:12.016Z,-0.80
2023-01-29T04:42:12.335Z,-0.78
2023-01-29T04:45:07.463Z,-0.82
2023-01-29T04:48:14.199Z,-0.84
2023-01-29T04:51:13.851Z,-0.89
2023-01-29T04:54:13.780Z,-0.94
2023-01-29T04:57:09.696Z,-0.98
2023-01-29T05:00:08.623Z,-1.00
2023-01-29T05:03:02.973Z,-0.97
2023-01-29T05:05:59.356Z,-0.97
2023-01-29T05:08:53.782Z,-0.99
2023-01-29T05:11:39.989Z,-0.99
2023-01-29T05:14:35.425Z,-0.97
2023-01-29T05:17:28.460Z,-0.93
2023-01-29T05:20:21.921Z,-0.94
2023-01-29T05:23:20.475Z,-0.92
2023-01-29T05:26:25.587Z,-0.85
2023-01-29T05:29:18.478Z,-0.85
2023-01-29T05:32:11.234Z,-0.91
2023-01-29T05:35:04.314Z,-0.92
2023-01-29T05:37:57.672Z,-0.95
2023-01-29T05:40:45.489Z,-0.93
2023-01-29T05:43:38.247Z,-0.93
2023-01-29T05:46:31.686Z,-0.95
2023-01-29T05:49:25.185Z,-0.98
2023-01-29T05:52:18.495Z,-1.01
2023-01-29T05:55:12.783Z,-1.05
2023-01-29T05:58:06.282Z,-1.08
2023-01-29T06:00:52.699Z,-1.06
2023-01-29T06:03:46.469Z,-1.02
2023-01-29T06:06:39.237Z,-0.98
2023-01-29T06:09:32.318Z,-0.94
2023-01-29T06:12:25.093Z,-0.92
2023-01-29T06:15:12.588Z,-0.93
2023-01-29T06:18:05.425Z,-0.94
2023-01-29T06:21:03.788Z,-1.00
2023-01-29T06:23:56.986Z,-1.06
2023-01-29T06:26:50.041Z,-1.14
2023-01-29T06:29:42.819Z,-1.21
2023-01-29T06:32:37.280Z,-1.25
2023-01-29T06:35:30.111Z,-1.26
2023-01-29T06:38:22.973Z,-1.27
2023-01-29T06:41:17.287Z,-1.26
2023-01-29T06:44:10.270Z,-1.24
2023-01-29T06:47:03.378Z,-1.23
2023-01-29T06:49:56.526Z,-1.25
2023-01-29T06:52:47.967Z,-1.28
2023-01-29T06:55:40.839Z,-1.30
2023-01-29T06:58:34.443Z,-1.32
2023-01-29T07:01:35.626Z,-1.36
2023-01-29T07:04:22.106Z,-1.40
2023-01-29T07:07:14.818Z,-1.45
2023-01-29T07:10:08.952Z,-1.51
2023-01-29T07:13:03.237Z,-1.54
2023-01-29T07:15:46.243Z,-1.48
2023-01-29T07:18:39.155Z,-1.41
2023-01-29T07:21:32.440Z,-1.34
2023-01-29T07:24:25.412Z,-1.31
2023-01-29T07:27:10.860Z,-1.35
2023-01-29T07:30:03.344Z,-1.38
2023-01-29T07:32:56.211Z,-1.41
2023-01-29T07:35:44.921Z,-1.45
2023-01-29T07:38:28.723Z,-1.52
2023-01-29T07:41:22.058Z,-1.56
2023-01-29T07:44:15.160Z,-1.64
2023-01-29T07:47:01.926Z,-1.70
2023-01-29T07:49:54.695Z,-1.70
2023-01-29T07:52:33.272Z,-1.65
2023-01-29T07:55:17.520Z,-1.60
2023-01-29T07:58:10.429Z,-1.56
2023-01-29T08:00:57.343Z,-1.55
2023-01-29T08:03:51.343Z,-1.57
2023-01-29T08:06:43.980Z,-1.58
2023-01-29T08:09:37.048Z,-1.60
2023-01-29T08:12:29.916Z,-1.64
2023-01-29T08:15:22.636Z,-1.70
2023-01-29T08:18:14.784Z,-1.77
2023-01-29T08:21:07.847Z,-1.78
2023-01-29T08:23:54.636Z,-1.77
2023-01-29T08:26:47.345Z,-1.81
2023-01-29T08:29:40.037Z,-1.78
2023-01-29T08:32:33.173Z,-1.75
2023-01-29T08:35:26.203Z,-1.75
2023-01-29T08:38:19.209Z,-1.72
2023-01-29T08:41:12.003Z,-1.68
2023-01-29T08:44:04.853Z,-1.65
2023-01-29T08:46:56.551Z,-1.67
2023-01-29T08:49:49.252Z,-1.66
2023-01-29T08:52:29.357Z,-1.58
2023-01-29T08:55:22.171Z,-1.47
2023-01-29T08:58:16.397Z,-1.37
2023-01-29T09:01:13.999Z,-1.20
2023-01-29T09:04:07.481Z,-1.08
2023-01-29T09:07:08.629Z,-0.99
2023-01-29T09:10:15.482Z,-0.93
2023-01-29T09:13:08.345Z,-0.90
2023-01-29T09:16:03.825Z,-0.84
2023-01-29T09:18:57.368Z,-0.85
2023-01-29T09:21:50.788Z,-0.85
2023-01-29T09:24:43.548Z,-0.80
2023-01-29T09:27:36.579Z,-0.88
2023-01-29T09:30:32.313Z,-0.89
2023-01-29T09:33:26.271Z,-0.88
2023-01-29T09:36:18.068Z,-0.81
2023-01-29T09:39:04.984Z,-0.77
2023-01-29T09:41:53.148Z,-0.65
2023-01-29T09:45:01.729Z,-0.57
2023-01-29T09:47:57.245Z,-0.51
2023-01-29T09:50:53.023Z,-0.47
2023-01-29T09:53:53.957Z,-0.32
2023-01-29T09:56:49.899Z,-0.25
2023-01-29T09:59:35.527Z,-0.08
2023-01-29T10:02:52.592Z,0.07
2023-01-29T10:06:34.844Z,0.01
2023-01-29T10:10:02.349Z,-0.02
2023-01-29T10:13:18.863Z,0.02
2023-01-29T10:16:19.943Z,0.05
2023-01-29T10:19:38.250Z,0.11
2023-01-29T10:22:47.351Z,0.24
2023-01-29T10:25:38.309Z,0.26
2023-01-29T10:28:36.615Z,0.39
2023-01-29T10:31:33.029Z,0.45
2023-01-29T10:34:31.366Z,0.41
2023-01-29T10:37:32.514Z,0.28
2023-01-29T10:40:28.736Z,0.15
2023-01-29T10:43:19.328Z,0.03
2023-01-29T10:46:29.552Z,-0.01
2023-01-29T10:49:58.897Z,-0.14
2023-01-29T10:53:20.096Z,-0.20
2023-01-29T10:56:40.440Z,-0.12
2023-01-29T10:59:53.454Z,0.09
2023-01-29T11:02:51.827Z,0.27
2023-01-29T11:05:51.729Z,0.45
2023-01-29T11:08:49.764Z,0.54
2023-01-29T11:11:49.164Z,0.57
2023-01-29T11:14:47.241Z,0.56
2023-01-29T11:17:40.840Z,0.57
2023-01-29T11:20:32.048Z,0.60
2023-01-29T11:23:31.413Z,0.67
2023-01-29T11:26:25.045Z,0.77
2023-01-29T11:29:39.052Z,0.82
2023-01-29T11:32:36.775Z,0.78
2023-01-29T11:35:30.767Z,0.79
2023-01-29T11:38:27.730Z,0.76
2023-01-29T11:41:22.546Z,0.71
2023-01-29T11:44:31.822Z,0.49
2023-01-29T11:47:28.676Z,0.27
2023-01-29T11:50:26.297Z,0.14
2023-01-29T11:53:35.459Z,0.06
2023-01-29T11:56:31.268Z,-0.02
2023-01-29T11:59:49.046Z,-0.11
2023-01-29T12:02:47.261Z,-0.15
2023-01-29T12:05:42.191Z,-0.16
2023-01-29T12:08:39.906Z,-0.21
2023-01-29T12:11:34.583Z,-0.20
2023-01-29T12:14:33.648Z,-0.13
2023-01-29T12:17:29.128Z,-0.03
2023-01-29T12:20:20.108Z,0.09
2023-01-29T12:23:30.994Z,0.17
2023-01-29T12:26:32.437Z,0.25
2023-01-29T12:29:32.003Z,0.25
2023-01-29T12:32:34.232Z,0.21
2023-01-29T12:35:25.643Z,0.18
2023-01-29T12:38:22.003Z,0.14
2023-01-29T12:41:45.098Z,0.08
2023-01-29T12:44:42.383Z,0.05
2023-01-29T12:47:39.501Z,0.03
2023-01-29T12:50:29.079Z,0.04
2023-01-29T12:53:30.992Z,0.04
2023-01-29T12:56:33.151Z,0.02
2023-01-29T12:59:29.382Z,0.02
2023-01-29T13:02:32.183Z,0.00
2023-01-29T13:05:29.665Z,-0.10
2023-01-29T13:08:26.351Z,-0.16
2023-01-29T13:11:23.715Z,-0.21
2023-01-29T13:14:15.697Z,-0.31
2023-01-29T13:17:09.110Z,-0.34
2023-01-29T13:20:06.739Z,-0.38
2023-01-29T13:23:06.130Z,-0.38
2023-01-29T13:25:55.387Z,-0.41
2023-01-29T13:28:46.191Z,-0.45
2023-01-29T13:31:46.642Z,-0.53
2023-01-29T13:34:28.514Z,-0.59
2023-01-29T13:37:20.143Z,-0.64
2023-01-29T13:40:04.166Z,-0.69
2023-01-29T13:42:53.246Z,-0.72
2023-01-29T13:45:48.691Z,-0.73
2023-01-29T13:48:47.302Z,-0.73
2023-01-29T13:51:41.424Z,-0.68
2023-01-29T13:54:34.710Z,-0.73
2023-01-29T13:57:54.782Z,-0.77
2023-01-29T14:00:52.848Z,-0.79
2023-01-29T14:04:03.757Z,-0.77
2023-01-29T14:06:59.996Z,-0.75
2023-01-29T14:10:14.802Z,-0.72
2023-01-29T14:13:32.202Z,-0.69
2023-01-29T14:16:37.678Z,-0.67
2023-01-29T14:19:25.767Z,-0.68
2023-01-29T14:22:24.993Z,-0.72
2023-01-29T14:25:22.924Z,-0.78
2023-01-29T14:28:21.600Z,-0.81
2023-01-29T14:31:07.712Z,-0.83
2023-01-29T14:33:50.701Z,-0.85
2023-01-29T14:36:46.618Z,-0.88
2023-01-29T14:39:47.511Z,-0.91
2023-01-29T14:42:50.251Z,-0.95
2023-01-29T14:45:32.014Z,-1.01
2023-01-29T14:48:48.708Z,-1.10
2023-01-29T14:51:46.753Z,-1.12
2023-01-29T14:54:30.639Z,-1.14
2023-01-29T14:57:24.959Z,-1.17
2023-01-29T15:00:17.347Z,-1.21
2023-01-29T15:03:23.101Z,-1.19
2023-01-29T15:06:24.536Z,-1.19
2023-01-29T15:09:03.876Z,-1.22
2023-01-29T15:11:59.013Z,-1.25
2023-01-29T15:14:53.681Z,-1.29
2023-01-29T15:17:32.399Z,-1.33
2023-01-29T15:20:35.291Z,-1.36
2023-01-29T15:23:27.661Z,-1.41
2023-01-29T15:26:27.019Z,-1.44
2023-01-29T15:29:28.314Z,-1.48
2023-01-29T15:32:29.866Z,-1.49
2023-01-29T15:35:31.575Z,-1.46
2023-01-29T15:38:26.422Z,-1.44
2023-01-29T15:41:23.836Z,-1.41
2023-01-29T15:44:19.642Z,-1.40
2023-01-29T15:47:14.495Z,-1.38
2023-01-29T15:49:52.241Z,-1.40
2023-01-29T15:52:36.421Z,-1.43
2023-01-29T15:55:16.316Z,-1.45
2023-01-29T15:57:54.380Z,-1.48
2023-01-29T16:00:54.854Z,-1.50
2023-01-29T16:03:30.846Z,-1.53
2023-01-29T16:06:17.131Z,-1.57
2023-01-29T16:08:53.545Z,-1.60
2023-01-29T16:11:49.243Z,-1.59
2023-01-29T16:14:44.874Z,-1.56
2023-01-29T16:17:41.948Z,-1.52
2023-01-29T16:20:42.624Z,-1.46
2023-01-29T16:23:46.356Z,-1.41
2023-01-29T16:26:36.526Z,-1.39
2023-01-29T16:29:34.447Z,-1.41
2023-01-29T16:32:26.059Z,-1.45
2023-01-29T16:35:19.895Z,-1.51
2023-01-29T16:38:29.394Z,-1.54
2023-01-29T16:41:33.705Z,-1.56
2023-01-29T16:44:37.690Z,-1.55
2023-01-29T16:47:25.940Z,-1.51
2023-01-29T16:50:40.559Z,-1.43
2023-01-29T16:53:34.844Z,-1.37
2023-01-29T16:56:30.161Z,-1.31
2023-01-29T16:59:28.399Z,-1.26
2023-01-29T17:02:23.164Z,-1.27
2023-01-29T17:05:10.970Z,-1.29
2023-01-29T17:07:56.738Z,-1.31
2023-01-29T17:10:51.710Z,-1.35
2023-01-29T17:13:39.904Z,-1.38
2023-01-29T17:16:35.300Z,-1.44
2023-01-29T17:19:30.179Z,-1.49
2023-01-29T17:22:22.931Z,-1.51
2023-01-29T17:25:18.921Z,-1.49
2023-01-29T17:28:16.177Z,-1.44
2023-01-29T17:31:06.623Z,-1.39
2023-01-29T17:33:58.780Z,-1.35
2023-01-29T17:36:51.358Z,-1.32
2023-01-29T17:39:34.683Z,-1.30
2023-01-29T17:42:28.890Z,-1.32
2023-01-29T17:45:23.796Z,-1.36
2023-01-29T17:48:19.606Z,-1.39
2023-01-29T17:51:16.681Z,-1.44
2023-01-29T17:54:09.603Z,-1.53
2023-01-29T17:57:05.208Z,-1.58
2023-01-29T17:59:58.358Z,-1.60
2023-01-29T18:02:36.665Z,-1.59
2023-01-29T18:05:30.209Z,-1.54
2023-01-29T18:08:27.836Z,-1.47
2023-01-29T18:11:19.461Z,-1.39
2023-01-29T18:14:14.138Z,-1.33
2023-01-29T18:17:07.592Z,-1.28
2023-01-29T18:19:53.386Z,-1.25
2023-01-29T18:22:46.891Z,-1.26
2023-01-29T18:25:29.756Z,-1.29
2023-01-29T18:28:23.187Z,-1.34
2023-01-29T18:31:16.207Z,-1.37
2023-01-29T18:34:03.052Z,-1.40
2023-01-29T18:36:56.017Z,-1.43
2023-01-29T18:39:48.896Z,-1.47
2023-01-29T18:42:41.915Z,-1.46
2023-01-29T18:45:27.476Z,-1.42
2023-01-29T18:48:14.273Z,-1.37
2023-01-29T18:51:08.928Z,-1.33
2023-01-29T18:54:02.029Z,-1.28
2023-01-29T18:57:08.717Z,-1.29
2023-01-29T18:59:49.409Z,-1.30
2023-01-29T19:02:43.166Z,-1.34
2023-01-29T19:05:17.116Z,-1.37
2023-01-29T19:08:10.728Z,-1.41
2023-01-29T19:11:08.526Z,-1.44
2023-01-29T19:14:01.339Z,-1.50
2023-01-29T19:16:47.195Z,-1.52
2023-01-29T19:19:40.628Z,-1.52
2023-01-29T19:22:24.637Z,-1.49
2023-01-29T19:25:19.694Z,-1.45
2023-01-29T19:28:12.805Z,-1.41
2023-01-29T19:31:01.318Z,-1.39
2023-01-29T19:33:54.811Z,-1.37
2023-01-29T19:36:46.381Z,-1.37
2023-01-29T19:39:39.188Z,-1.37
2023-01-29T19:42:25.112Z,-1.38
2023-01-29T19:45:18.439Z,-1.41
2023-01-29T19:48:30.372Z,-1.47
2023-01-29T19:51:24.801Z,-1.52
2023-01-29T19:54:10.357Z,-1.58
2023-01-29T19:57:04.474Z,-1.61
2023-01-29T19:59:45.839Z,-1.60
2023-01-29T20:02:39.042Z,-1.55
2023-01-29T20:05:37.552Z,-1.49
2023-01-29T20:08:30.339Z,-1.46
2023-01-29T20:11:24.928Z,-1.40
2023-01-29T20:14:20.425Z,-1.35
2023-01-29T20:17:13.187Z,-1.31
2023-01-29T20:20:07.037Z,-1.29
2023-01-29T20:23:01.557Z,-1.31
2023-01-29T20:25:48.107Z,-1.34
2023-01-29T20:28:31.059Z,-1.36
2023-01-29T20:31:22.695Z,-1.40
2023-01-29T20:34:18.414Z,-1.43
2023-01-29T20:37:11.161Z,-1.44
2023-01-29T20:40:02.913Z,-1.47
2023-01-29T20:42:54.533Z,-1.51
2023-01-29T20:45:47.277Z,-1.49
2023-01-29T20:48:42.138Z,-1.45
2023-01-29T20:51:23.774Z,-1.41
2023-01-29T20:54:12.616Z,-1.35
2023-01-29T20:57:05.532Z,-1.27
2023-01-29T21:00:00.145Z,-1.22
2023-01-29T21:02:52.913Z,-1.17
2023-01-29T21:05:45.674Z,-1.16
2023-01-29T21:08:38.885Z,-1.18
2023-01-29T21:11:33.944Z,-1.21
2023-01-29T21:14:26.713Z,-1.25
2023-01-29T21:17:20.161Z,-1.33
2023-01-29T21:20:15.177Z,-1.39
2023-01-29T21:23:05.323Z,-1.45
2023-01-29T21:26:05.277Z,-1.52
2023-01-29T21:28:58.566Z,-1.55
2023-01-29T21:31:51.447Z,-1.57
2023-01-29T21:34:44.775Z,-1.62
2023-01-29T21:37:20.541Z,-1.65
2023-01-29T21:40:03.575Z,-1.66
2023-01-29T21:43:16.145Z,-1.64
2023-01-29T21:46:12.621Z,-1.60
2023-01-29T21:49:05.566Z,-1.57
2023-01-29T21:51:59.479Z,-1.55
2023-01-29T21:54:52.268Z,-1.51
2023-01-29T21:57:47.325Z,-1.51
2023-01-29T22:00:40.083Z,-1.50
2023-01-29T22:03:34.674Z,-1.53
2023-01-29T22:06:27.513Z,-1.56
2023-01-29T22:09:20.555Z,-1.61
2023-01-29T22:12:13.643Z,-1.63
2023-01-29T22:15:00.256Z,-1.63
2023-01-29T22:17:53.072Z,-1.60
2023-01-29T22:20:45.840Z,-1.56
2023-01-29T22:23:21.417Z,-1.54
2023-01-29T22:26:14.280Z,-1.48
2023-01-29T22:29:05.879Z,-1.41
2023-01-29T22:31:58.829Z,-1.37
2023-01-29T22:34:51.792Z,-1.34
2023-01-29T22:37:44.887Z,-1.33
2023-01-29T22:40:37.955Z,-1.33
2023-01-29T22:43:19.403Z,-1.34
2023-01-29T22:46:14.900Z,-1.36
2023-01-29T22:49:07.915Z,-1.42
2023-01-29T22:52:11.605Z,-1.44
2023-01-29T22:54:54.732Z,-1.43
2023-01-29T22:57:51.402Z,-1.40
2023-01-29T23:00:44.151Z,-1.34
2023-01-29T23:03:37.258Z,-1.30
2023-01-29T23:06:30.087Z,-1.26
2023-01-29T23:09:22.905Z,-1.23
2023-01-29T23:12:16.198Z,-1.19
2023-01-29T23:15:10.292Z,-1.19
2023-01-29T23:18:03.852Z,-1.21
2023-01-29T23:21:01.372Z,-1.24
2023-01-29T23:23:55.518Z,-1.30
2023-01-29T23:27:06.320Z,-1.32
2023-01-29T23:29:59.059Z,-1.35
2023-01-29T23:32:51.792Z,-1.39
2023-01-29T23:35:40.751Z,-1.41
2023-01-29T23:38:26.533Z,-1.40
2023-01-29T23:41:19.467Z,-1.39
2023-01-29T23:44:12.853Z,-1.37
2023-01-29T23:47:05.710Z,-1.35
2023-01-29T23:50:00.857Z,-1.33
2023-01-29T23:52:53.606Z,-1.30
2023-01-29T23:55:56.446Z,-1.28
2023-01-29T23:58:49.380Z,-1.25
